CheckWX is a tool to help pilots better visualize weather data.  It is not intended as a substitute for an official pre-flight weather briefing.

04:19:06 UTC

KLGU TAF
Logan-Cache Airport
Logan, Utah, USA
KLGU 262320Z 2700/2724 21017G26KT P6SM FEW080 SCT200 FM270300 15006KT P6SM SCT200 WS020/21040KT FM271100 VRB04KT P6SM SCT200

Jun-27@
00:00 UTC

Jun-27 @ 00:00 UTC

Jun-27@
03:00 UTC

Jun-27 @ 03:00 UTC

KLGU 262320Z 2700/2724 21017G26KT P6SM FEW080 SCT200

Expired

Wind
  • 210° at 17 KTS
  • {Gusting to 26 KTS
Cloud Levels
  • Few at 8,000' AGL
  • Scattered at 20,000' AGL

Jun-27@
03:00 UTC

Jun-27 @ 03:00 UTC

Jun-27@
11:00 UTC

Jun-27 @ 11:00 UTC

FM270300 15006KT P6SM SCT200 WS020/21040KT

From

From Standard forecast or significant change

Wind
  • 150° at 6 KTS
Cloud Levels
  • Scattered at 20,000' AGL

Jun-27@
11:00 UTC

Jun-27 @ 11:00 UTC

Jun-28@
00:00 UTC

Jun-28 @ 00:00 UTC

FM271100 VRB04KT P6SM SCT200

From

From Standard forecast or significant change

Wind
  • Variable at 4 KTS
Cloud Levels
  • Scattered at 20,000' AGL